sensor_id;sensor_type;location;lat;lon;timestamp;temperature;humidity
11474;DHT22;5793;52.238;13.438;2022-09-09T00:00:20;13.90;99.90
11474;DHT22;5793;52.238;13.438;2022-09-09T00:02:54;13.90;99.90
11474;DHT22;5793;52.238;13.438;2022-09-09T00:05:31;13.80;99.90
11474;DHT22;5793;52.238;13.438;2022-09-09T00:08:02;13.90;99.90
11474;DHT22;5793;52.238;13.438;2022-09-09T00:10:34;13.80;99.90
11474;DHT22;5793;52.238;13.438;2022-09-09T00:13:13;13.70;99.90
11474;DHT22;5793;52.238;13.438;2022-09-09T00:15:50;13.60;99.90
11474;DHT22;5793;52.238;13.438;2022-09-09T00:18:24;13.60;99.90
11474;DHT22;5793;52.238;13.438;2022-09-09T00:21:00;13.50;99.90
11474;DHT22;5793;52.238;13.438;2022-09-09T00:23:32;13.40;99.90
11474;DHT22;5793;52.238;13.438;2022-09-09T00:26:07;13.30;99.90
11474;DHT22;5793;52.238;13.438;2022-09-09T00:28:39;13.30;99.90
11474;DHT22;5793;52.238;13.438;2022-09-09T00:31:13;13.30;99.90
11474;DHT22;5793;52.238;13.438;2022-09-09T00:33:42;13.30;99.90
11474;DHT22;5793;52.238;13.438;2022-09-09T00:36:14;13.40;99.90
11474;DHT22;5793;52.238;13.438;2022-09-09T00:38:47;13.40;99.90
11474;DHT22;5793;52.238;13.438;2022-09-09T00:41:21;13.30;99.90
11474;DHT22;5793;52.238;13.438;2022-09-09T00:43:57;13.30;99.90
11474;DHT22;5793;52.238;13.438;2022-09-09T00:46:41;13.30;99.90
11474;DHT22;5793;52.238;13.438;2022-09-09T00:49:23;13.30;99.90
11474;DHT22;5793;52.238;13.438;2022-09-09T00:52:05;13.20;99.90
11474;DHT22;5793;52.238;13.438;2022-09-09T00:54:43;13.30;99.90
11474;DHT22;5793;52.238;13.438;2022-09-09T00:57:23;13.30;99.90
11474;DHT22;5793;52.238;13.438;2022-09-09T01:00:15;13.30;99.90
11474;DHT22;5793;52.238;13.438;2022-09-09T01:02:55;13.40;99.90
11474;DHT22;5793;52.238;13.438;2022-09-09T01:05:30;13.50;99.90
11474;DHT22;5793;52.238;13.438;2022-09-09T01:08:08;13.50;99.90
11474;DHT22;5793;52.238;13.438;2022-09-09T01:10:43;13.40;99.90
11474;DHT22;5793;52.238;13.438;2022-09-09T01:13:19;13.50;99.90
11474;DHT22;5793;52.238;13.438;2022-09-09T01:15:50;13.60;99.90
11474;DHT22;5793;52.238;13.438;2022-09-09T01:18:29;13.70;99.90
11474;DHT22;5793;52.238;13.438;2022-09-09T01:21:06;13.60;99.90
11474;DHT22;5793;52.238;13.438;2022-09-09T01:23:49;13.70;99.90
11474;DHT22;5793;52.238;13.438;2022-09-09T01:26:26;13.70;99.90
11474;DHT22;5793;52.238;13.438;2022-09-09T01:28:57;13.50;99.90
11474;DHT22;5793;52.238;13.438;2022-09-09T01:31:28;13.50;99.90
11474;DHT22;5793;52.238;13.438;2022-09-09T01:33:58;13.50;99.90
11474;DHT22;5793;52.238;13.438;2022-09-09T01:36:31;13.50;99.90
11474;DHT22;5793;52.238;13.438;2022-09-09T01:39:02;13.60;99.90
11474;DHT22;5793;52.238;13.438;2022-09-09T01:41:32;13.60;99.90
11474;DHT22;5793;52.238;13.438;2022-09-09T01:44:00;13.70;99.90
11474;DHT22;5793;52.238;13.438;2022-09-09T01:46:28;13.70;99.90
11474;DHT22;5793;52.238;13.438;2022-09-09T01:48:57;13.70;99.90
11474;DHT22;5793;52.238;13.438;2022-09-09T01:51:26;13.70;99.90
11474;DHT22;5793;52.238;13.438;2022-09-09T01:53:54;13.70;99.90
11474;DHT22;5793;52.238;13.438;2022-09-09T01:56:34;13.60;99.90
11474;DHT22;5793;52.238;13.438;2022-09-09T01:59:17;13.50;99.90
11474;DHT22;5793;52.238;13.438;2022-09-09T02:01:58;13.40;99.90
11474;DHT22;5793;52.238;13.438;2022-09-09T02:04:37;13.40;99.90
11474;DHT22;5793;52.238;13.438;2022-09-09T02:07:11;13.30;99.90
11474;DHT22;5793;52.238;13.438;2022-09-09T02:09:43;13.20;99.90
11474;DHT22;5793;52.238;13.438;2022-09-09T02:12:16;13.20;99.90
11474;DHT22;5793;52.238;13.438;2022-09-09T02:14:50;13.20;99.90
11474;DHT22;5793;52.238;13.438;2022-09-09T02:17:22;13.20;99.90
11474;DHT22;5793;52.238;13.438;2022-09-09T02:19:56;13.10;99.90
11474;DHT22;5793;52.238;13.438;2022-09-09T02:22:26;13.10;99.90
11474;DHT22;5793;52.238;13.438;2022-09-09T02:24:57;13.00;99.90
11474;DHT22;5793;52.238;13.438;2022-09-09T02:27:28;13.10;99.90
11474;DHT22;5793;52.238;13.438;2022-09-09T02:29:57;13.20;99.90
11474;DHT22;5793;52.238;13.438;2022-09-09T02:32:27;13.10;99.90
11474;DHT22;5793;52.238;13.438;2022-09-09T02:34:59;13.00;99.90
11474;DHT22;5793;52.238;13.438;2022-09-09T02:37:34;13.00;99.90
11474;DHT22;5793;52.238;13.438;2022-09-09T02:40:04;13.00;99.90
11474;DHT22;5793;52.238;13.438;2022-09-09T02:42:39;12.90;99.90
11474;DHT22;5793;52.238;13.438;2022-09-09T02:45:09;12.90;99.90
11474;DHT22;5793;52.238;13.438;2022-09-09T02:47:39;12.90;99.90
11474;DHT22;5793;52.238;13.438;2022-09-09T02:50:13;13.00;99.90
11474;DHT22;5793;52.238;13.438;2022-09-09T02:52:59;13.00;99.90
11474;DHT22;5793;52.238;13.438;2022-09-09T02:55:37;13.00;99.90
11474;DHT22;5793;52.238;13.438;2022-09-09T02:58:08;13.00;99.90
11474;DHT22;5793;52.238;13.438;2022-09-09T03:00:39;13.10;99.90
11474;DHT22;5793;52.238;13.438;2022-09-09T03:03:07;13.00;99.90
11474;DHT22;5793;52.238;13.438;2022-09-09T03:05:36;13.00;99.90
11474;DHT22;5793;52.238;13.438;2022-09-09T03:08:05;13.10;99.90
11474;DHT22;5793;52.238;13.438;2022-09-09T03:10:33;13.00;99.90
11474;DHT22;5793;52.238;13.438;2022-09-09T03:13:01;13.10;99.90
11474;DHT22;5793;52.238;13.438;2022-09-09T03:15:32;13.10;99.90
11474;DHT22;5793;52.238;13.438;2022-09-09T03:18:01;13.10;99.90
11474;DHT22;5793;52.238;13.438;2022-09-09T03:20:29;13.10;99.90
11474;DHT22;5793;52.238;13.438;2022-09-09T03:22:59;13.10;99.90
11474;DHT22;5793;52.238;13.438;2022-09-09T03:25:27;13.10;99.90
11474;DHT22;5793;52.238;13.438;2022-09-09T03:27:55;13.10;99.90
11474;DHT22;5793;52.238;13.438;2022-09-09T03:30:25;13.10;99.90
11474;DHT22;5793;52.238;13.438;2022-09-09T03:32:55;13.10;99.90
11474;DHT22;5793;52.238;13.438;2022-09-09T03:35:23;13.10;99.90
11474;DHT22;5793;52.238;13.438;2022-09-09T03:37:51;13.10;99.90
11474;DHT22;5793;52.238;13.438;2022-09-09T03:40:19;13.10;99.90
11474;DHT22;5793;52.238;13.438;2022-09-09T03:42:47;13.00;99.90
11474;DHT22;5793;52.238;13.438;2022-09-09T03:45:15;13.00;99.90
11474;DHT22;5793;52.238;13.438;2022-09-09T03:47:43;12.90;99.90
11474;DHT22;5793;52.238;13.438;2022-09-09T03:50:12;12.90;99.90
11474;DHT22;5793;52.238;13.438;2022-09-09T03:52:41;12.90;99.90
11474;DHT22;5793;52.238;13.438;2022-09-09T03:55:09;13.00;99.90
11474;DHT22;5793;52.238;13.438;2022-09-09T03:57:37;12.90;99.90
11474;DHT22;5793;52.238;13.438;2022-09-09T04:00:07;12.90;99.90
11474;DHT22;5793;52.238;13.438;2022-09-09T04:02:35;12.90;99.90
11474;DHT22;5793;52.238;13.438;2022-09-09T04:05:03;12.80;99.90
11474;DHT22;5793;52.238;13.438;2022-09-09T04:07:32;12.80;99.90
11474;DHT22;5793;52.238;13.438;2022-09-09T04:09:59;12.80;99.90
11474;DHT22;5793;52.238;13.438;2022-09-09T04:12:28;12.80;99.90
11474;DHT22;5793;52.238;13.438;2022-09-09T04:14:55;12.80;99.90
11474;DHT22;5793;52.238;13.438;2022-09-09T04:17:23;12.70;99.90
11474;DHT22;5793;52.238;13.438;2022-09-09T04:19:51;12.70;99.90
11474;DHT22;5793;52.238;13.438;2022-09-09T04:22:19;12.70;99.90
11474;DHT22;5793;52.238;13.438;2022-09-09T04:24:48;12.70;99.90
11474;DHT22;5793;52.238;13.438;2022-09-09T04:27:15;12.70;99.90
11474;DHT22;5793;52.238;13.438;2022-09-09T04:29:43;12.60;99.90
11474;DHT22;5793;52.238;13.438;2022-09-09T04:32:11;12.60;99.90
11474;DHT22;5793;52.238;13.438;2022-09-09T04:34:38;12.60;99.90
11474;DHT22;5793;52.238;13.438;2022-09-09T04:37:07;12.50;99.90
11474;DHT22;5793;52.238;13.438;2022-09-09T04:39:36;12.50;99.90
11474;DHT22;5793;52.238;13.438;2022-09-09T04:42:05;12.60;99.90
11474;DHT22;5793;52.238;13.438;2022-09-09T04:44:33;12.50;99.90
11474;DHT22;5793;52.238;13.438;2022-09-09T04:47:01;12.50;99.90
11474;DHT22;5793;52.238;13.438;2022-09-09T04:49:29;12.50;99.90
11474;DHT22;5793;52.238;13.438;2022-09-09T04:51:58;12.50;99.90
11474;DHT22;5793;52.238;13.438;2022-09-09T04:54:25;12.60;99.90
11474;DHT22;5793;52.238;13.438;2022-09-09T04:56:54;12.70;99.90
11474;DHT22;5793;52.238;13.438;2022-09-09T04:59:23;12.60;99.90
11474;DHT22;5793;52.238;13.438;2022-09-09T05:01:51;12.60;99.90
11474;DHT22;5793;52.238;13.438;2022-09-09T05:04:21;12.70;99.90
11474;DHT22;5793;52.238;13.438;2022-09-09T05:06:49;12.80;99.90
11474;DHT22;5793;52.238;13.438;2022-09-09T05:09:17;12.80;99.90
11474;DHT22;5793;52.238;13.438;2022-09-09T05:11:44;12.80;99.90
11474;DHT22;5793;52.238;13.438;2022-09-09T05:14:12;12.70;99.90
11474;DHT22;5793;52.238;13.438;2022-09-09T05:16:43;12.80;99.90
11474;DHT22;5793;52.238;13.438;2022-09-09T05:19:11;12.80;99.90
11474;DHT22;5793;52.238;13.438;2022-09-09T05:21:39;12.80;99.90
11474;DHT22;5793;52.238;13.438;2022-09-09T05:24:08;12.80;99.90
11474;DHT22;5793;52.238;13.438;2022-09-09T05:26:36;12.90;99.90
11474;DHT22;5793;52.238;13.438;2022-09-09T05:29:03;12.90;99.90
11474;DHT22;5793;52.238;13.438;2022-09-09T05:31:32;12.90;99.90
11474;DHT22;5793;52.238;13.438;2022-09-09T05:34:01;13.00;99.90
11474;DHT22;5793;52.238;13.438;2022-09-09T05:36:29;13.00;99.90
11474;DHT22;5793;52.238;13.438;2022-09-09T05:38:57;13.10;99.90
11474;DHT22;5793;52.238;13.438;2022-09-09T05:41:24;13.20;99.90
11474;DHT22;5793;52.238;13.438;2022-09-09T05:43:52;13.30;99.90
11474;DHT22;5793;52.238;13.438;2022-09-09T05:46:21;13.30;99.90
11474;DHT22;5793;52.238;13.438;2022-09-09T05:48:50;13.30;99.90
11474;DHT22;5793;52.238;13.438;2022-09-09T05:51:21;13.40;99.90
11474;DHT22;5793;52.238;13.438;2022-09-09T05:53:49;13.40;99.90
11474;DHT22;5793;52.238;13.438;2022-09-09T05:56:18;13.40;99.90
11474;DHT22;5793;52.238;13.438;2022-09-09T05:58:49;13.50;99.90
11474;DHT22;5793;52.238;13.438;2022-09-09T06:01:20;13.60;99.90
11474;DHT22;5793;52.238;13.438;2022-09-09T06:03:49;13.60;99.90
11474;DHT22;5793;52.238;13.438;2022-09-09T06:06:20;13.70;99.90
11474;DHT22;5793;52.238;13.438;2022-09-09T06:08:51;13.70;99.90
11474;DHT22;5793;52.238;13.438;2022-09-09T06:11:21;13.80;99.90
11474;DHT22;5793;52.238;13.438;2022-09-09T06:13:49;14.00;99.90
11474;DHT22;5793;52.238;13.438;2022-09-09T06:16:21;14.10;99.90
11474;DHT22;5793;52.238;13.438;2022-09-09T06:18:50;14.20;99.90
11474;DHT22;5793;52.238;13.438;2022-09-09T06:21:22;14.30;99.90
11474;DHT22;5793;52.238;13.438;2022-09-09T06:23:50;14.40;99.90
11474;DHT22;5793;52.238;13.438;2022-09-09T06:26:26;14.40;99.90
11474;DHT22;5793;52.238;13.438;2022-09-09T06:28:55;14.50;99.90
11474;DHT22;5793;52.238;13.438;2022-09-09T06:31:25;14.50;99.90
11474;DHT22;5793;52.238;13.438;2022-09-09T06:33:58;14.60;99.90
11474;DHT22;5793;52.238;13.438;2022-09-09T06:36:28;14.60;99.90
11474;DHT22;5793;52.238;13.438;2022-09-09T06:38:56;14.70;99.90
11474;DHT22;5793;52.238;13.438;2022-09-09T06:41:26;14.70;99.90
11474;DHT22;5793;52.238;13.438;2022-09-09T06:43:54;14.80;99.90
11474;DHT22;5793;52.238;13.438;2022-09-09T06:46:24;14.80;99.90
11474;DHT22;5793;52.238;13.438;2022-09-09T06:48:55;14.90;99.90
11474;DHT22;5793;52.238;13.438;2022-09-09T06:51:28;15.00;99.90
11474;DHT22;5793;52.238;13.438;2022-09-09T06:53:57;15.10;99.90
11474;DHT22;5793;52.238;13.438;2022-09-09T06:56:26;15.20;99.90
11474;DHT22;5793;52.238;13.438;2022-09-09T06:58:56;15.40;99.90
11474;DHT22;5793;52.238;13.438;2022-09-09T07:01:25;15.50;99.90
11474;DHT22;5793;52.238;13.438;2022-09-09T07:03:56;15.50;99.90
11474;DHT22;5793;52.238;13.438;2022-09-09T07:06:25;15.60;99.90
11474;DHT22;5793;52.238;13.438;2022-09-09T07:08:55;15.70;99.90
11474;DHT22;5793;52.238;13.438;2022-09-09T07:11:25;15.90;99.90
11474;DHT22;5793;52.238;13.438;2022-09-09T07:13:54;16.00;99.90
11474;DHT22;5793;52.238;13.438;2022-09-09T07:16:23;16.10;99.90
11474;DHT22;5793;52.238;13.438;2022-09-09T07:18:52;16.20;99.90
11474;DHT22;5793;52.238;13.438;2022-09-09T07:21:26;16.40;99.90
11474;DHT22;5793;52.238;13.438;2022-09-09T07:23:55;16.50;99.90
11474;DHT22;5793;52.238;13.438;2022-09-09T07:26:25;16.70;99.90
11474;DHT22;5793;52.238;13.438;2022-09-09T07:28:54;16.80;99.90
11474;DHT22;5793;52.238;13.438;2022-09-09T07:31:25;16.90;99.90
11474;DHT22;5793;52.238;13.438;2022-09-09T07:33:54;17.00;99.90
11474;DHT22;5793;52.238;13.438;2022-09-09T07:36:23;17.30;99.90
11474;DHT22;5793;52.238;13.438;2022-09-09T07:39:01;17.50;99.90
11474;DHT22;5793;52.238;13.438;2022-09-09T07:41:32;17.80;99.90
11474;DHT22;5793;52.238;13.438;2022-09-09T07:44:04;18.10;99.90
11474;DHT22;5793;52.238;13.438;2022-09-09T07:46:32;18.40;99.90
11474;DHT22;5793;52.238;13.438;2022-09-09T07:49:01;18.60;99.90
11474;DHT22;5793;52.238;13.438;2022-09-09T07:51:31;18.80;99.90
11474;DHT22;5793;52.238;13.438;2022-09-09T07:54:01;18.80;99.90
11474;DHT22;5793;52.238;13.438;2022-09-09T07:56:30;18.90;99.90
11474;DHT22;5793;52.238;13.438;2022-09-09T07:58:59;19.10;99.90
11474;DHT22;5793;52.238;13.438;2022-09-09T08:01:30;19.50;99.90
11474;DHT22;5793;52.238;13.438;2022-09-09T08:03:59;19.90;99.90
11474;DHT22;5793;52.238;13.438;2022-09-09T08:06:28;20.30;99.90
11474;DHT22;5793;52.238;13.438;2022-09-09T08:08:56;20.50;99.90
11474;DHT22;5793;52.238;13.438;2022-09-09T08:11:27;20.50;99.90
11474;DHT22;5793;52.238;13.438;2022-09-09T08:13:56;20.40;99.90
11474;DHT22;5793;52.238;13.438;2022-09-09T08:16:30;20.10;99.90
11474;DHT22;5793;52.238;13.438;2022-09-09T08:18:58;20.00;99.90
11474;DHT22;5793;52.238;13.438;2022-09-09T08:21:27;19.70;99.90
11474;DHT22;5793;52.238;13.438;2022-09-09T08:23:57;19.60;99.90
11474;DHT22;5793;52.238;13.438;2022-09-09T08:26:28;19.60;99.90
11474;DHT22;5793;52.238;13.438;2022-09-09T08:28:57;19.70;99.90
11474;DHT22;5793;52.238;13.438;2022-09-09T08:31:27;19.80;99.90
11474;DHT22;5793;52.238;13.438;2022-09-09T08:33:56;20.20;99.90
11474;DHT22;5793;52.238;13.438;2022-09-09T08:36:27;20.50;99.90
11474;DHT22;5793;52.238;13.438;2022-09-09T08:38:57;20.80;99.90
11474;DHT22;5793;52.238;13.438;2022-09-09T08:44:36;22.50;99.90
11474;DHT22;5793;52.238;13.438;2022-09-09T08:47:17;24.50;99.90
11474;DHT22;5793;52.238;13.438;2022-09-09T08:50:01;25.40;99.90
11474;DHT22;5793;52.238;13.438;2022-09-09T08:52:37;25.80;99.90
11474;DHT22;5793;52.238;13.438;2022-09-09T08:55:15;26.50;99.90
11474;DHT22;5793;52.238;13.438;2022-09-09T08:57:50;28.30;99.90
11474;DHT22;5793;52.238;13.438;2022-09-09T09:00:19;31.80;94.60
11474;DHT22;5793;52.238;13.438;2022-09-09T09:02:53;33.80;78.00
11474;DHT22;5793;52.238;13.438;2022-09-09T09:05:29;34.50;70.00
11474;DHT22;5793;52.238;13.438;2022-09-09T09:08:03;34.20;68.10
11474;DHT22;5793;52.238;13.438;2022-09-09T09:10:41;34.20;65.30
11474;DHT22;5793;52.238;13.438;2022-09-09T09:13:17;35.10;63.20
11474;DHT22;5793;52.238;13.438;2022-09-09T09:15:52;35.60;60.10
11474;DHT22;5793;52.238;13.438;2022-09-09T09:18:21;37.00;58.80
11474;DHT22;5793;52.238;13.438;2022-09-09T09:20:54;37.90;55.50
11474;DHT22;5793;52.238;13.438;2022-09-09T09:23:26;39.20;53.90
11474;DHT22;5793;52.238;13.438;2022-09-09T09:26:00;40.20;50.50
11474;DHT22;5793;52.238;13.438;2022-09-09T09:28:32;40.20;49.60
11474;DHT22;5793;52.238;13.438;2022-09-09T09:31:03;39.50;50.10
11474;DHT22;5793;52.238;13.438;2022-09-09T09:33:36;38.80;50.70
11474;DHT22;5793;52.238;13.438;2022-09-09T09:36:08;39.10;50.30
11474;DHT22;5793;52.238;13.438;2022-09-09T09:38:36;39.30;48.90
11474;DHT22;5793;52.238;13.438;2022-09-09T09:41:33;38.60;49.90
11474;DHT22;5793;52.238;13.438;2022-09-09T09:44:03;39.00;49.60
11474;DHT22;5793;52.238;13.438;2022-09-09T09:46:31;39.60;49.30
11474;DHT22;5793;52.238;13.438;2022-09-09T09:49:01;40.20;47.30
11474;DHT22;5793;52.238;13.438;2022-09-09T09:51:31;40.10;48.10
11474;DHT22;5793;52.238;13.438;2022-09-09T09:54:11;40.10;47.30
11474;DHT22;5793;52.238;13.438;2022-09-09T09:56:42;40.80;46.90
11474;DHT22;5793;52.238;13.438;2022-09-09T09:59:22;40.70;45.20
11474;DHT22;5793;52.238;13.438;2022-09-09T10:02:16;39.30;48.00
11474;DHT22;5793;52.238;13.438;2022-09-09T10:04:45;37.20;51.30
11474;DHT22;5793;52.238;13.438;2022-09-09T10:07:18;37.70;50.20
11474;DHT22;5793;52.238;13.438;2022-09-09T10:09:48;38.70;49.20
11474;DHT22;5793;52.238;13.438;2022-09-09T10:12:27;39.20;47.60
11474;DHT22;5793;52.238;13.438;2022-09-09T10:15:02;39.80;48.00
11474;DHT22;5793;52.238;13.438;2022-09-09T10:17:36;40.50;47.20
11474;DHT22;5793;52.238;13.438;2022-09-09T10:20:22;39.70;46.90
11474;DHT22;5793;52.238;13.438;2022-09-09T10:23:04;39.30;46.70
11474;DHT22;5793;52.238;13.438;2022-09-09T10:25:50;39.60;46.60
11474;DHT22;5793;52.238;13.438;2022-09-09T10:28:33;38.60;47.70
11474;DHT22;5793;52.238;13.438;2022-09-09T10:31:18;35.50;53.30
11474;DHT22;5793;52.238;13.438;2022-09-09T10:33:51;33.30;58.00
11474;DHT22;5793;52.238;13.438;2022-09-09T10:36:21;34.00;55.40
11474;DHT22;5793;52.238;13.438;2022-09-09T10:38:53;35.30;52.30
11474;DHT22;5793;52.238;13.438;2022-09-09T10:41:38;36.30;51.60
11474;DHT22;5793;52.238;13.438;2022-09-09T10:44:20;36.20;52.40
11474;DHT22;5793;52.238;13.438;2022-09-09T10:47:02;34.80;54.60
11474;DHT22;5793;52.238;13.438;2022-09-09T10:49:49;32.70;59.30
11474;DHT22;5793;52.238;13.438;2022-09-09T10:52:25;30.90;65.10
11474;DHT22;5793;52.238;13.438;2022-09-09T10:54:58;29.20;69.00
11474;DHT22;5793;52.238;13.438;2022-09-09T10:57:31;28.00;71.60
11474;DHT22;5793;52.238;13.438;2022-09-09T11:00:04;27.10;72.40
11474;DHT22;5793;52.238;13.438;2022-09-09T11:02:34;26.60;77.90
11474;DHT22;5793;52.238;13.438;2022-09-09T11:05:05;26.10;79.00
11474;DHT22;5793;52.238;13.438;2022-09-09T11:07:39;25.60;84.40
11474;DHT22;5793;52.238;13.438;2022-09-09T11:10:18;25.60;93.00
11474;DHT22;5793;52.238;13.438;2022-09-09T11:12:51;25.60;99.90
11474;DHT22;5793;52.238;13.438;2022-09-09T11:15:26;25.80;99.90
11474;DHT22;5793;52.238;13.438;2022-09-09T11:17:59;26.00;99.90
11474;DHT22;5793;52.238;13.438;2022-09-09T11:20:29;25.90;99.60
11474;DHT22;5793;52.238;13.438;2022-09-09T11:23:01;25.90;98.40
11474;DHT22;5793;52.238;13.438;2022-09-09T11:25:34;25.90;99.90
11474;DHT22;5793;52.238;13.438;2022-09-09T11:28:21;25.60;99.90
11474;DHT22;5793;52.238;13.438;2022-09-09T11:31:03;25.60;99.90
11474;DHT22;5793;52.238;13.438;2022-09-09T11:33:50;25.80;99.90
11474;DHT22;5793;52.238;13.438;2022-09-09T11:42:17;26.00;99.90
11474;DHT22;5793;52.238;13.438;2022-09-09T11:44:46;26.00;99.90
11474;DHT22;5793;52.238;13.438;2022-09-09T11:47:23;25.70;99.90
11474;DHT22;5793;52.238;13.438;2022-09-09T11:50:08;25.60;99.90
11474;DHT22;5793;52.238;13.438;2022-09-09T11:52:37;25.60;99.90
11474;DHT22;5793;52.238;13.438;2022-09-09T11:55:10;25.70;99.90
11474;DHT22;5793;52.238;13.438;2022-09-09T11:57:39;25.70;99.90
11474;DHT22;5793;52.238;13.438;2022-09-09T12:00:30;25.70;99.90
11474;DHT22;5793;52.238;13.438;2022-09-09T12:03:00;25.40;99.90
11474;DHT22;5793;52.238;13.438;2022-09-09T12:05:39;25.50;99.90
11474;DHT22;5793;52.238;13.438;2022-09-09T12:08:09;25.70;99.90
11474;DHT22;5793;52.238;13.438;2022-09-09T12:10:39;26.00;99.90
11474;DHT22;5793;52.238;13.438;2022-09-09T12:13:09;26.00;99.90
11474;DHT22;5793;52.238;13.438;2022-09-09T12:15:47;26.00;99.90
11474;DHT22;5793;52.238;13.438;2022-09-09T12:18:22;25.80;99.90
11474;DHT22;5793;52.238;13.438;2022-09-09T12:20:57;25.50;99.90
11474;DHT22;5793;52.238;13.438;2022-09-09T12:23:38;25.20;99.90
11474;DHT22;5793;52.238;13.438;2022-09-09T12:26:31;25.20;99.90
11474;DHT22;5793;52.238;13.438;2022-09-09T12:29:14;25.30;99.90
11474;DHT22;5793;52.238;13.438;2022-09-09T12:31:52;25.50;99.90
11474;DHT22;5793;52.238;13.438;2022-09-09T12:34:32;25.70;99.90
11474;DHT22;5793;52.238;13.438;2022-09-09T12:37:06;25.80;99.90
11474;DHT22;5793;52.238;13.438;2022-09-09T12:39:43;26.00;99.90
11474;DHT22;5793;52.238;13.438;2022-09-09T12:42:17;26.00;99.90
11474;DHT22;5793;52.238;13.438;2022-09-09T12:44:53;26.10;99.90
11474;DHT22;5793;52.238;13.438;2022-09-09T12:47:25;26.20;99.90
11474;DHT22;5793;52.238;13.438;2022-09-09T12:49:57;26.20;99.90
11474;DHT22;5793;52.238;13.438;2022-09-09T12:52:28;26.10;99.90
11474;DHT22;5793;52.238;13.438;2022-09-09T12:54:58;26.10;99.90
11474;DHT22;5793;52.238;13.438;2022-09-09T12:57:31;26.00;99.90
11474;DHT22;5793;52.238;13.438;2022-09-09T13:00:13;25.80;99.90
11474;DHT22;5793;52.238;13.438;2022-09-09T13:02:47;25.50;99.90
11474;DHT22;5793;52.238;13.438;2022-09-09T13:05:19;25.30;99.90
11474;DHT22;5793;52.238;13.438;2022-09-09T13:07:49;25.10;99.90
11474;DHT22;5793;52.238;13.438;2022-09-09T13:10:23;24.80;99.90
11474;DHT22;5793;52.238;13.438;2022-09-09T13:13:14;24.50;99.90
11474;DHT22;5793;52.238;13.438;2022-09-09T13:15:49;24.20;99.90
11474;DHT22;5793;52.238;13.438;2022-09-09T13:18:21;24.00;99.90
11474;DHT22;5793;52.238;13.438;2022-09-09T13:20:50;23.90;99.90
11474;DHT22;5793;52.238;13.438;2022-09-09T13:23:20;23.90;99.90
11474;DHT22;5793;52.238;13.438;2022-09-09T13:25:56;24.00;99.90
11474;DHT22;5793;52.238;13.438;2022-09-09T13:28:25;24.10;99.90
11474;DHT22;5793;52.238;13.438;2022-09-09T13:33:31;24.20;99.90
11474;DHT22;5793;52.238;13.438;2022-09-09T13:36:01;24.10;99.90
11474;DHT22;5793;52.238;13.438;2022-09-09T13:38:33;23.90;99.90
11474;DHT22;5793;52.238;13.438;2022-09-09T13:41:04;23.80;99.90
11474;DHT22;5793;52.238;13.438;2022-09-09T13:43:36;23.80;99.90
11474;DHT22;5793;52.238;13.438;2022-09-09T13:48:55;23.70;99.90
11474;DHT22;5793;52.238;13.438;2022-09-09T13:51:32;23.70;99.90
11474;DHT22;5793;52.238;13.438;2022-09-09T13:54:01;23.50;99.90
11474;DHT22;5793;52.238;13.438;2022-09-09T13:56:28;23.40;99.90
11474;DHT22;5793;52.238;13.438;2022-09-09T13:58:56;23.40;99.90
11474;DHT22;5793;52.238;13.438;2022-09-09T14:01:24;23.40;99.90
11474;DHT22;5793;52.238;13.438;2022-09-09T14:03:57;23.40;99.90
11474;DHT22;5793;52.238;13.438;2022-09-09T14:06:25;23.30;99.90
11474;DHT22;5793;52.238;13.438;2022-09-09T14:08:54;23.20;99.90
11474;DHT22;5793;52.238;13.438;2022-09-09T14:11:22;23.00;99.90
11474;DHT22;5793;52.238;13.438;2022-09-09T14:13:50;23.00;99.90
11474;DHT22;5793;52.238;13.438;2022-09-09T14:16:18;23.10;99.90
11474;DHT22;5793;52.238;13.438;2022-09-09T14:18:47;23.00;99.90
11474;DHT22;5793;52.238;13.438;2022-09-09T14:21:16;23.00;99.90
11474;DHT22;5793;52.238;13.438;2022-09-09T14:23:44;23.00;99.90
11474;DHT22;5793;52.238;13.438;2022-09-09T14:26:12;23.00;99.90
11474;DHT22;5793;52.238;13.438;2022-09-09T14:28:40;23.00;99.90
11474;DHT22;5793;52.238;13.438;2022-09-09T14:31:21;23.00;99.90
11474;DHT22;5793;52.238;13.438;2022-09-09T14:33:49;23.10;99.90
11474;DHT22;5793;52.238;13.438;2022-09-09T14:36:18;23.20;99.90
11474;DHT22;5793;52.238;13.438;2022-09-09T14:38:46;23.30;99.90
11474;DHT22;5793;52.238;13.438;2022-09-09T14:41:16;23.30;99.90
11474;DHT22;5793;52.238;13.438;2022-09-09T14:43:45;23.10;99.90
11474;DHT22;5793;52.238;13.438;2022-09-09T14:46:14;23.00;99.90
11474;DHT22;5793;52.238;13.438;2022-09-09T14:48:43;23.00;99.90
11474;DHT22;5793;52.238;13.438;2022-09-09T14:51:13;23.00;99.90
11474;DHT22;5793;52.238;13.438;2022-09-09T14:53:43;23.00;99.90
11474;DHT22;5793;52.238;13.438;2022-09-09T14:56:13;23.20;99.90
11474;DHT22;5793;52.238;13.438;2022-09-09T14:58:41;23.50;99.90
11474;DHT22;5793;52.238;13.438;2022-09-09T15:01:10;23.70;99.90
11474;DHT22;5793;52.238;13.438;2022-09-09T15:03:40;23.90;99.90
11474;DHT22;5793;52.238;13.438;2022-09-09T15:06:09;23.90;99.90
11474;DHT22;5793;52.238;13.438;2022-09-09T15:08:39;23.90;99.90
11474;DHT22;5793;52.238;13.438;2022-09-09T15:11:11;23.90;99.90
11474;DHT22;5793;52.238;13.438;2022-09-09T15:13:40;23.80;99.90
11474;DHT22;5793;52.238;13.438;2022-09-09T15:16:10;23.70;99.90
11474;DHT22;5793;52.238;13.438;2022-09-09T15:18:38;23.60;99.90
11474;DHT22;5793;52.238;13.438;2022-09-09T15:21:09;23.50;99.90
11474;DHT22;5793;52.238;13.438;2022-09-09T15:23:38;23.40;99.90
11474;DHT22;5793;52.238;13.438;2022-09-09T15:26:06;23.30;99.90
11474;DHT22;5793;52.238;13.438;2022-09-09T15:28:37;23.10;99.90
11474;DHT22;5793;52.238;13.438;2022-09-09T15:31:07;22.90;99.90
11474;DHT22;5793;52.238;13.438;2022-09-09T15:33:37;22.60;99.90
11474;DHT22;5793;52.238;13.438;2022-09-09T15:36:16;22.30;99.90
11474;DHT22;5793;52.238;13.438;2022-09-09T15:38:44;22.10;99.90
11474;DHT22;5793;52.238;13.438;2022-09-09T15:41:13;22.20;99.90
11474;DHT22;5793;52.238;13.438;2022-09-09T15:43:45;22.20;99.90
11474;DHT22;5793;52.238;13.438;2022-09-09T15:46:24;22.20;99.90
11474;DHT22;5793;52.238;13.438;2022-09-09T15:48:53;22.20;99.90
11474;DHT22;5793;52.238;13.438;2022-09-09T15:51:22;22.20;99.90
11474;DHT22;5793;52.238;13.438;2022-09-09T15:54:08;22.20;99.90
11474;DHT22;5793;52.238;13.438;2022-09-09T15:56:36;22.10;99.90
11474;DHT22;5793;52.238;13.438;2022-09-09T15:59:05;22.00;99.90
11474;DHT22;5793;52.238;13.438;2022-09-09T16:01:34;21.80;99.90
11474;DHT22;5793;52.238;13.438;2022-09-09T16:04:02;21.70;99.90
11474;DHT22;5793;52.238;13.438;2022-09-09T16:06:30;21.70;99.90
11474;DHT22;5793;52.238;13.438;2022-09-09T16:09:01;21.60;99.90
11474;DHT22;5793;52.238;13.438;2022-09-09T16:11:32;21.40;99.90
11474;DHT22;5793;52.238;13.438;2022-09-09T16:14:02;21.30;99.90